sensor_id;sensor_type;location;lat;lon;timestamp;P1;durP1;ratioP1;P2;durP2;ratioP2
4642;SDS011;2334;48.710;9.622;2022-09-01T00:01:38;12.40;;;9.07;;
4642;SDS011;2334;48.710;9.622;2022-09-01T00:04:08;11.47;;;8.40;;
4642;SDS011;2334;48.710;9.622;2022-09-01T00:06:37;14.70;;;8.50;;
4642;SDS011;2334;48.710;9.622;2022-09-01T00:09:08;15.13;;;9.07;;
4642;SDS011;2334;48.710;9.622;2022-09-01T00:11:38;10.63;;;7.60;;
4642;SDS011;2334;48.710;9.622;2022-09-01T00:14:07;11.90;;;8.47;;
4642;SDS011;2334;48.710;9.622;2022-09-01T00:16:35;11.50;;;8.13;;
4642;SDS011;2334;48.710;9.622;2022-09-01T00:19:04;12.43;;;8.70;;
4642;SDS011;2334;48.710;9.622;2022-09-01T00:21:33;10.97;;;7.90;;
4642;SDS011;2334;48.710;9.622;2022-09-01T00:24:03;13.53;;;8.20;;
4642;SDS011;2334;48.710;9.622;2022-09-01T00:26:30;12.20;;;8.70;;
4642;SDS011;2334;48.710;9.622;2022-09-01T00:28:58;14.07;;;9.00;;
4642;SDS011;2334;48.710;9.622;2022-09-01T00:31:26;12.57;;;8.30;;
4642;SDS011;2334;48.710;9.622;2022-09-01T00:33:53;16.70;;;9.60;;
4642;SDS011;2334;48.710;9.622;2022-09-01T00:36:20;12.23;;;8.10;;
4642;SDS011;2334;48.710;9.622;2022-09-01T00:38:48;12.17;;;8.90;;
4642;SDS011;2334;48.710;9.622;2022-09-01T00:41:17;14.23;;;8.13;;
4642;SDS011;2334;48.710;9.622;2022-09-01T00:43:46;12.17;;;8.17;;
4642;SDS011;2334;48.710;9.622;2022-09-01T00:46:15;11.07;;;7.30;;
4642;SDS011;2334;48.710;9.622;2022-09-01T00:48:52;10.00;;;7.70;;
4642;SDS011;2334;48.710;9.622;2022-09-01T00:51:22;14.47;;;9.67;;
4642;SDS011;2334;48.710;9.622;2022-09-01T00:53:49;15.83;;;6.70;;
4642;SDS011;2334;48.710;9.622;2022-09-01T00:56:16;11.70;;;7.70;;
4642;SDS011;2334;48.710;9.622;2022-09-01T00:58:43;12.57;;;8.00;;
4642;SDS011;2334;48.710;9.622;2022-09-01T01:01:11;13.20;;;7.90;;
4642;SDS011;2334;48.710;9.622;2022-09-01T01:03:38;16.40;;;9.57;;
4642;SDS011;2334;48.710;9.622;2022-09-01T01:06:09;13.30;;;8.73;;
4642;SDS011;2334;48.710;9.622;2022-09-01T01:08:39;12.93;;;8.83;;
4642;SDS011;2334;48.710;9.622;2022-09-01T01:11:09;14.03;;;8.73;;
4642;SDS011;2334;48.710;9.622;2022-09-01T01:13:48;10.73;;;8.40;;
4642;SDS011;2334;48.710;9.622;2022-09-01T01:16:19;10.83;;;8.13;;
4642;SDS011;2334;48.710;9.622;2022-09-01T01:18:46;11.93;;;7.90;;
4642;SDS011;2334;48.710;9.622;2022-09-01T01:21:16;12.73;;;9.40;;
4642;SDS011;2334;48.710;9.622;2022-09-01T01:24:05;13.67;;;7.63;;
4642;SDS011;2334;48.710;9.622;2022-09-01T01:26:41;14.07;;;8.53;;
4642;SDS011;2334;48.710;9.622;2022-09-01T01:29:08;17.17;;;8.10;;
4642;SDS011;2334;48.710;9.622;2022-09-01T01:31:35;15.13;;;8.97;;
4642;SDS011;2334;48.710;9.622;2022-09-01T01:34:03;11.40;;;7.93;;
4642;SDS011;2334;48.710;9.622;2022-09-01T01:36:32;12.53;;;8.73;;
4642;SDS011;2334;48.710;9.622;2022-09-01T01:39:02;10.20;;;7.67;;
4642;SDS011;2334;48.710;9.622;2022-09-01T01:41:32;15.33;;;8.07;;
4642;SDS011;2334;48.710;9.622;2022-09-01T01:44:06;9.70;;;6.87;;
4642;SDS011;2334;48.710;9.622;2022-09-01T01:46:34;11.33;;;8.37;;
4642;SDS011;2334;48.710;9.622;2022-09-01T01:49:03;12.63;;;7.93;;
4642;SDS011;2334;48.710;9.622;2022-09-01T01:51:30;13.23;;;8.23;;
4642;SDS011;2334;48.710;9.622;2022-09-01T01:53:57;12.87;;;8.23;;
4642;SDS011;2334;48.710;9.622;2022-09-01T01:56:29;12.83;;;8.70;;
4642;SDS011;2334;48.710;9.622;2022-09-01T01:58:57;15.43;;;8.60;;
4642;SDS011;2334;48.710;9.622;2022-09-01T02:01:27;15.03;;;8.27;;
4642;SDS011;2334;48.710;9.622;2022-09-01T02:03:56;12.10;;;8.17;;
4642;SDS011;2334;48.710;9.622;2022-09-01T02:06:24;15.57;;;8.47;;
4642;SDS011;2334;48.710;9.622;2022-09-01T02:08:53;12.67;;;8.30;;
4642;SDS011;2334;48.710;9.622;2022-09-01T02:11:23;13.77;;;8.73;;
4642;SDS011;2334;48.710;9.622;2022-09-01T02:13:51;23.50;;;9.63;;
4642;SDS011;2334;48.710;9.622;2022-09-01T02:16:20;15.57;;;9.70;;
4642;SDS011;2334;48.710;9.622;2022-09-01T02:18:49;13.60;;;8.37;;
4642;SDS011;2334;48.710;9.622;2022-09-01T02:21:20;18.70;;;8.27;;
4642;SDS011;2334;48.710;9.622;2022-09-01T02:23:50;14.77;;;8.20;;
4642;SDS011;2334;48.710;9.622;2022-09-01T02:26:24;14.40;;;8.33;;
4642;SDS011;2334;48.710;9.622;2022-09-01T02:28:54;9.73;;;7.43;;
4642;SDS011;2334;48.710;9.622;2022-09-01T02:31:21;13.87;;;7.90;;
4642;SDS011;2334;48.710;9.622;2022-09-01T02:33:50;11.97;;;8.03;;
4642;SDS011;2334;48.710;9.622;2022-09-01T02:36:18;14.60;;;8.83;;
4642;SDS011;2334;48.710;9.622;2022-09-01T02:38:46;11.60;;;7.13;;
4642;SDS011;2334;48.710;9.622;2022-09-01T02:41:15;15.27;;;7.80;;
4642;SDS011;2334;48.710;9.622;2022-09-01T02:43:47;12.23;;;7.60;;
4642;SDS011;2334;48.710;9.622;2022-09-01T02:46:14;11.33;;;7.90;;
4642;SDS011;2334;48.710;9.622;2022-09-01T02:48:41;13.60;;;9.40;;
4642;SDS011;2334;48.710;9.622;2022-09-01T02:51:12;15.63;;;10.80;;
4642;SDS011;2334;48.710;9.622;2022-09-01T02:53:42;10.70;;;8.30;;
4642;SDS011;2334;48.710;9.622;2022-09-01T02:56:12;18.07;;;9.47;;
4642;SDS011;2334;48.710;9.622;2022-09-01T02:58:42;13.47;;;8.90;;
4642;SDS011;2334;48.710;9.622;2022-09-01T03:01:11;14.80;;;9.10;;
4642;SDS011;2334;48.710;9.622;2022-09-01T03:03:39;18.03;;;10.60;;
4642;SDS011;2334;48.710;9.622;2022-09-01T03:06:06;17.13;;;9.93;;
4642;SDS011;2334;48.710;9.622;2022-09-01T03:08:35;15.07;;;9.40;;
4642;SDS011;2334;48.710;9.622;2022-09-01T03:11:03;16.73;;;10.50;;
4642;SDS011;2334;48.710;9.622;2022-09-01T03:13:35;16.40;;;8.93;;
4642;SDS011;2334;48.710;9.622;2022-09-01T03:16:03;15.13;;;8.13;;
4642;SDS011;2334;48.710;9.622;2022-09-01T03:18:30;14.60;;;9.00;;
4642;SDS011;2334;48.710;9.622;2022-09-01T03:20:57;14.80;;;9.70;;
4642;SDS011;2334;48.710;9.622;2022-09-01T03:23:24;14.73;;;9.80;;
4642;SDS011;2334;48.710;9.622;2022-09-01T03:25:53;17.13;;;11.27;;
4642;SDS011;2334;48.710;9.622;2022-09-01T03:28:21;15.83;;;10.67;;
4642;SDS011;2334;48.710;9.622;2022-09-01T03:30:48;16.83;;;11.10;;
4642;SDS011;2334;48.710;9.622;2022-09-01T03:33:18;12.90;;;9.40;;
4642;SDS011;2334;48.710;9.622;2022-09-01T03:35:46;17.03;;;9.63;;
4642;SDS011;2334;48.710;9.622;2022-09-01T03:38:13;14.23;;;10.33;;
4642;SDS011;2334;48.710;9.622;2022-09-01T03:40:47;15.50;;;10.73;;
4642;SDS011;2334;48.710;9.622;2022-09-01T03:43:18;18.20;;;10.33;;
4642;SDS011;2334;48.710;9.622;2022-09-01T03:45:49;19.53;;;10.00;;
4642;SDS011;2334;48.710;9.622;2022-09-01T03:48:19;15.13;;;9.70;;
4642;SDS011;2334;48.710;9.622;2022-09-01T03:50:46;17.37;;;9.30;;
4642;SDS011;2334;48.710;9.622;2022-09-01T03:53:15;13.20;;;9.07;;
4642;SDS011;2334;48.710;9.622;2022-09-01T03:55:44;17.60;;;10.63;;
4642;SDS011;2334;48.710;9.622;2022-09-01T03:58:14;18.97;;;11.63;;
4642;SDS011;2334;48.710;9.622;2022-09-01T04:00:45;15.40;;;10.60;;
4642;SDS011;2334;48.710;9.622;2022-09-01T04:03:15;16.00;;;10.93;;
4642;SDS011;2334;48.710;9.622;2022-09-01T04:05:46;12.67;;;9.77;;
4642;SDS011;2334;48.710;9.622;2022-09-01T04:08:15;17.23;;;10.20;;
4642;SDS011;2334;48.710;9.622;2022-09-01T04:10:44;15.57;;;10.47;;
4642;SDS011;2334;48.710;9.622;2022-09-01T04:13:14;16.07;;;9.33;;
4642;SDS011;2334;48.710;9.622;2022-09-01T04:15:43;24.43;;;12.77;;
4642;SDS011;2334;48.710;9.622;2022-09-01T04:18:11;19.87;;;11.80;;
4642;SDS011;2334;48.710;9.622;2022-09-01T04:20:44;16.80;;;10.40;;
4642;SDS011;2334;48.710;9.622;2022-09-01T04:23:17;17.67;;;10.40;;
4642;SDS011;2334;48.710;9.622;2022-09-01T04:25:51;20.80;;;9.93;;
4642;SDS011;2334;48.710;9.622;2022-09-01T04:28:21;14.97;;;9.17;;
4642;SDS011;2334;48.710;9.622;2022-09-01T04:30:57;15.93;;;9.57;;
4642;SDS011;2334;48.710;9.622;2022-09-01T04:33:30;17.70;;;10.13;;
4642;SDS011;2334;48.710;9.622;2022-09-01T04:36:02;16.13;;;9.97;;
4642;SDS011;2334;48.710;9.622;2022-09-01T04:38:30;15.57;;;9.60;;
4642;SDS011;2334;48.710;9.622;2022-09-01T04:41:02;16.97;;;10.10;;
4642;SDS011;2334;48.710;9.622;2022-09-01T04:43:30;11.20;;;8.60;;
4642;SDS011;2334;48.710;9.622;2022-09-01T04:45:58;20.20;;;11.20;;
4642;SDS011;2334;48.710;9.622;2022-09-01T04:48:26;16.93;;;10.27;;
4642;SDS011;2334;48.710;9.622;2022-09-01T04:50:55;15.97;;;10.40;;
4642;SDS011;2334;48.710;9.622;2022-09-01T04:53:22;18.13;;;9.63;;
4642;SDS011;2334;48.710;9.622;2022-09-01T04:55:50;15.33;;;9.80;;
4642;SDS011;2334;48.710;9.622;2022-09-01T04:58:19;17.63;;;10.93;;
4642;SDS011;2334;48.710;9.622;2022-09-01T05:00:47;22.37;;;12.37;;
4642;SDS011;2334;48.710;9.622;2022-09-01T05:03:17;22.53;;;11.23;;
4642;SDS011;2334;48.710;9.622;2022-09-01T05:05:48;25.43;;;12.60;;
4642;SDS011;2334;48.710;9.622;2022-09-01T05:08:18;21.33;;;12.33;;
4642;SDS011;2334;48.710;9.622;2022-09-01T05:10:47;21.73;;;12.43;;
4642;SDS011;2334;48.710;9.622;2022-09-01T05:13:18;24.13;;;12.57;;
4642;SDS011;2334;48.710;9.622;2022-09-01T05:15:46;24.40;;;12.97;;
4642;SDS011;2334;48.710;9.622;2022-09-01T05:18:27;23.87;;;13.67;;
4642;SDS011;2334;48.710;9.622;2022-09-01T05:20:54;26.80;;;13.20;;
4642;SDS011;2334;48.710;9.622;2022-09-01T05:23:21;22.23;;;12.83;;
4642;SDS011;2334;48.710;9.622;2022-09-01T05:25:50;31.37;;;14.20;;
4642;SDS011;2334;48.710;9.622;2022-09-01T05:28:19;31.47;;;14.37;;
4642;SDS011;2334;48.710;9.622;2022-09-01T05:30:51;21.73;;;13.93;;
4642;SDS011;2334;48.710;9.622;2022-09-01T05:33:19;23.07;;;13.67;;
4642;SDS011;2334;48.710;9.622;2022-09-01T05:35:52;18.10;;;11.70;;
4642;SDS011;2334;48.710;9.622;2022-09-01T05:38:21;26.30;;;14.33;;
4642;SDS011;2334;48.710;9.622;2022-09-01T05:40:54;26.40;;;13.50;;
4642;SDS011;2334;48.710;9.622;2022-09-01T05:43:23;47.40;;;16.47;;
4642;SDS011;2334;48.710;9.622;2022-09-01T05:45:52;26.47;;;14.27;;
4642;SDS011;2334;48.710;9.622;2022-09-01T05:48:19;22.90;;;15.23;;
4642;SDS011;2334;48.710;9.622;2022-09-01T05:50:47;25.30;;;14.43;;
4642;SDS011;2334;48.710;9.622;2022-09-01T05:53:21;38.90;;;16.30;;
4642;SDS011;2334;48.710;9.622;2022-09-01T05:55:49;27.47;;;14.00;;
4642;SDS011;2334;48.710;9.622;2022-09-01T05:58:21;24.33;;;13.87;;
4642;SDS011;2334;48.710;9.622;2022-09-01T06:00:51;25.57;;;14.87;;
4642;SDS011;2334;48.710;9.622;2022-09-01T06:03:19;20.73;;;13.03;;
4642;SDS011;2334;48.710;9.622;2022-09-01T06:05:48;24.83;;;14.20;;
4642;SDS011;2334;48.710;9.622;2022-09-01T06:08:17;25.90;;;14.80;;
4642;SDS011;2334;48.710;9.622;2022-09-01T06:10:47;29.67;;;15.40;;
4642;SDS011;2334;48.710;9.622;2022-09-01T06:13:14;23.00;;;14.33;;
4642;SDS011;2334;48.710;9.622;2022-09-01T06:15:46;28.40;;;13.97;;
4642;SDS011;2334;48.710;9.622;2022-09-01T06:18:13;28.97;;;15.37;;
4642;SDS011;2334;48.710;9.622;2022-09-01T06:20:43;23.30;;;13.13;;
4642;SDS011;2334;48.710;9.622;2022-09-01T06:23:11;24.13;;;12.90;;
4642;SDS011;2334;48.710;9.622;2022-09-01T06:25:42;25.17;;;14.17;;
4642;SDS011;2334;48.710;9.622;2022-09-01T06:28:13;24.07;;;13.33;;
4642;SDS011;2334;48.710;9.622;2022-09-01T06:30:40;22.53;;;13.70;;
4642;SDS011;2334;48.710;9.622;2022-09-01T06:33:08;24.30;;;14.40;;
4642;SDS011;2334;48.710;9.622;2022-09-01T06:35:38;21.00;;;13.90;;
4642;SDS011;2334;48.710;9.622;2022-09-01T06:38:06;23.27;;;12.77;;
4642;SDS011;2334;48.710;9.622;2022-09-01T06:40:34;24.60;;;15.67;;
4642;SDS011;2334;48.710;9.622;2022-09-01T06:43:03;19.97;;;12.90;;
4642;SDS011;2334;48.710;9.622;2022-09-01T06:45:34;21.40;;;12.63;;
4642;SDS011;2334;48.710;9.622;2022-09-01T06:48:06;27.47;;;12.83;;
4642;SDS011;2334;48.710;9.622;2022-09-01T06:50:33;21.73;;;12.30;;
4642;SDS011;2334;48.710;9.622;2022-09-01T06:53:03;19.30;;;12.00;;
4642;SDS011;2334;48.710;9.622;2022-09-01T06:55:35;20.97;;;11.83;;
4642;SDS011;2334;48.710;9.622;2022-09-01T06:58:04;20.70;;;11.40;;
4642;SDS011;2334;48.710;9.622;2022-09-01T07:00:33;24.63;;;13.23;;
4642;SDS011;2334;48.710;9.622;2022-09-01T07:03:06;16.53;;;10.70;;
4642;SDS011;2334;48.710;9.622;2022-09-01T07:05:34;17.53;;;10.80;;
4642;SDS011;2334;48.710;9.622;2022-09-01T07:08:03;15.80;;;10.60;;
4642;SDS011;2334;48.710;9.622;2022-09-01T07:10:38;16.10;;;10.10;;
4642;SDS011;2334;48.710;9.622;2022-09-01T07:13:10;24.23;;;11.73;;
4642;SDS011;2334;48.710;9.622;2022-09-01T07:15:48;15.77;;;9.40;;
4642;SDS011;2334;48.710;9.622;2022-09-01T07:18:16;20.10;;;10.23;;
4642;SDS011;2334;48.710;9.622;2022-09-01T07:20:45;16.70;;;10.00;;
4642;SDS011;2334;48.710;9.622;2022-09-01T07:23:13;18.00;;;10.07;;
4642;SDS011;2334;48.710;9.622;2022-09-01T07:25:41;15.97;;;9.17;;
4642;SDS011;2334;48.710;9.622;2022-09-01T07:28:10;17.67;;;10.10;;
4642;SDS011;2334;48.710;9.622;2022-09-01T07:30:39;13.03;;;9.63;;
4642;SDS011;2334;48.710;9.622;2022-09-01T07:33:09;9.47;;;6.53;;
4642;SDS011;2334;48.710;9.622;2022-09-01T07:35:37;9.80;;;6.80;;
4642;SDS011;2334;48.710;9.622;2022-09-01T07:38:05;7.73;;;5.90;;
4642;SDS011;2334;48.710;9.622;2022-09-01T07:40:34;8.33;;;6.17;;
4642;SDS011;2334;48.710;9.622;2022-09-01T07:43:03;11.80;;;8.20;;
4642;SDS011;2334;48.710;9.622;2022-09-01T07:45:33;17.77;;;9.93;;
4642;SDS011;2334;48.710;9.622;2022-09-01T07:48:03;13.17;;;7.60;;
4642;SDS011;2334;48.710;9.622;2022-09-01T07:50:34;10.90;;;7.50;;
4642;SDS011;2334;48.710;9.622;2022-09-01T07:53:02;9.67;;;6.30;;
4642;SDS011;2334;48.710;9.622;2022-09-01T07:55:29;7.30;;;5.50;;
4642;SDS011;2334;48.710;9.622;2022-09-01T07:57:56;6.70;;;5.37;;
4642;SDS011;2334;48.710;9.622;2022-09-01T08:00:24;7.70;;;4.43;;
4642;SDS011;2334;48.710;9.622;2022-09-01T08:02:52;7.00;;;5.60;;
4642;SDS011;2334;48.710;9.622;2022-09-01T08:05:20;5.00;;;4.50;;
4642;SDS011;2334;48.710;9.622;2022-09-01T08:07:52;5.80;;;4.50;;
4642;SDS011;2334;48.710;9.622;2022-09-01T08:10:19;3.87;;;3.57;;
4642;SDS011;2334;48.710;9.622;2022-09-01T08:12:47;5.13;;;4.63;;
4642;SDS011;2334;48.710;9.622;2022-09-01T08:15:14;11.70;;;4.63;;
4642;SDS011;2334;48.710;9.622;2022-09-01T08:17:42;6.20;;;4.40;;
4642;SDS011;2334;48.710;9.622;2022-09-01T08:20:10;4.53;;;4.13;;
4642;SDS011;2334;48.710;9.622;2022-09-01T08:22:37;6.47;;;5.00;;
4642;SDS011;2334;48.710;9.622;2022-09-01T08:25:06;4.77;;;4.37;;
4642;SDS011;2334;48.710;9.622;2022-09-01T08:27:35;5.70;;;4.60;;
4642;SDS011;2334;48.710;9.622;2022-09-01T08:30:04;9.03;;;3.83;;
4642;SDS011;2334;48.710;9.622;2022-09-01T08:32:33;5.23;;;4.50;;
4642;SDS011;2334;48.710;9.622;2022-09-01T08:35:01;7.57;;;4.43;;
4642;SDS011;2334;48.710;9.622;2022-09-01T08:37:30;4.90;;;4.37;;
4642;SDS011;2334;48.710;9.622;2022-09-01T08:39:57;6.07;;;4.53;;
4642;SDS011;2334;48.710;9.622;2022-09-01T08:42:29;4.47;;;4.07;;
4642;SDS011;2334;48.710;9.622;2022-09-01T08:45:10;4.27;;;3.80;;
4642;SDS011;2334;48.710;9.622;2022-09-01T08:47:45;6.20;;;4.60;;
4642;SDS011;2334;48.710;9.622;2022-09-01T08:50:12;4.33;;;3.90;;
4642;SDS011;2334;48.710;9.622;2022-09-01T08:52:40;7.73;;;4.57;;
4642;SDS011;2334;48.710;9.622;2022-09-01T08:55:11;4.17;;;3.40;;
4642;SDS011;2334;48.710;9.622;2022-09-01T08:57:46;5.27;;;4.00;;
4642;SDS011;2334;48.710;9.622;2022-09-01T09:00:16;4.67;;;4.23;;
4642;SDS011;2334;48.710;9.622;2022-09-01T09:02:50;4.70;;;4.20;;
4642;SDS011;2334;48.710;9.622;2022-09-01T09:05:30;4.83;;;4.13;;
4642;SDS011;2334;48.710;9.622;2022-09-01T09:08:15;7.60;;;4.77;;
4642;SDS011;2334;48.710;9.622;2022-09-01T09:10:57;4.70;;;4.27;;
4642;SDS011;2334;48.710;9.622;2022-09-01T09:13:33;3.93;;;3.50;;
4642;SDS011;2334;48.710;9.622;2022-09-01T09:16:07;5.77;;;4.07;;
4642;SDS011;2334;48.710;9.622;2022-09-01T09:18:42;6.47;;;4.43;;
4642;SDS011;2334;48.710;9.622;2022-09-01T09:21:13;6.47;;;4.53;;
4642;SDS011;2334;48.710;9.622;2022-09-01T09:23:44;8.77;;;4.43;;
4642;SDS011;2334;48.710;9.622;2022-09-01T09:26:15;4.37;;;3.63;;
4642;SDS011;2334;48.710;9.622;2022-09-01T09:28:46;4.47;;;4.07;;
4642;SDS011;2334;48.710;9.622;2022-09-01T09:31:25;6.90;;;3.50;;
4642;SDS011;2334;48.710;9.622;2022-09-01T09:33:56;8.20;;;4.40;;
4642;SDS011;2334;48.710;9.622;2022-09-01T09:36:28;3.70;;;3.40;;
4642;SDS011;2334;48.710;9.622;2022-09-01T09:39:10;3.50;;;3.23;;
4642;SDS011;2334;48.710;9.622;2022-09-01T09:41:40;7.10;;;4.60;;
4642;SDS011;2334;48.710;9.622;2022-09-01T09:44:18;3.60;;;3.30;;
4642;SDS011;2334;48.710;9.622;2022-09-01T09:46:50;3.73;;;3.40;;
4642;SDS011;2334;48.710;9.622;2022-09-01T09:49:18;3.40;;;3.10;;
4642;SDS011;2334;48.710;9.622;2022-09-01T09:51:49;5.40;;;3.23;;
4642;SDS011;2334;48.710;9.622;2022-09-01T09:54:19;4.90;;;3.97;;
4642;SDS011;2334;48.710;9.622;2022-09-01T09:57:01;3.80;;;3.50;;
4642;SDS011;2334;48.710;9.622;2022-09-01T09:59:34;3.80;;;3.50;;
4642;SDS011;2334;48.710;9.622;2022-09-01T10:04:49;7.03;;;3.70;;
4642;SDS011;2334;48.710;9.622;2022-09-01T10:07:24;4.13;;;3.40;;
4642;SDS011;2334;48.710;9.622;2022-09-01T10:09:58;4.70;;;3.40;;
4642;SDS011;2334;48.710;9.622;2022-09-01T10:12:27;3.53;;;3.30;;
4642;SDS011;2334;48.710;9.622;2022-09-01T10:14:59;9.20;;;4.80;;
4642;SDS011;2334;48.710;9.622;2022-09-01T10:17:29;4.07;;;3.67;;
4642;SDS011;2334;48.710;9.622;2022-09-01T10:20:00;4.20;;;3.73;;
4642;SDS011;2334;48.710;9.622;2022-09-01T10:22:33;4.23;;;3.43;;
4642;SDS011;2334;48.710;9.622;2022-09-01T10:25:02;5.27;;;4.20;;
4642;SDS011;2334;48.710;9.622;2022-09-01T10:27:31;3.97;;;3.27;;
4642;SDS011;2334;48.710;9.622;2022-09-01T10:30:04;4.70;;;4.07;;
4642;SDS011;2334;48.710;9.622;2022-09-01T10:32:36;5.13;;;3.80;;
4642;SDS011;2334;48.710;9.622;2022-09-01T10:35:06;4.40;;;4.00;;
4642;SDS011;2334;48.710;9.622;2022-09-01T10:37:36;4.67;;;4.00;;
4642;SDS011;2334;48.710;9.622;2022-09-01T10:45:59;5.57;;;4.13;;
4642;SDS011;2334;48.710;9.622;2022-09-01T10:49:12;3.90;;;3.60;;
4642;SDS011;2334;48.710;9.622;2022-09-01T10:51:47;4.40;;;4.00;;
4642;SDS011;2334;48.710;9.622;2022-09-01T11:03:37;5.50;;;4.07;;
4642;SDS011;2334;48.710;9.622;2022-09-01T11:09:17;4.20;;;3.47;;
4642;SDS011;2334;48.710;9.622;2022-09-01T11:11:50;3.07;;;2.87;;
4642;SDS011;2334;48.710;9.622;2022-09-01T11:14:48;3.67;;;3.30;;
4642;SDS011;2334;48.710;9.622;2022-09-01T11:17:17;4.90;;;3.50;;
4642;SDS011;2334;48.710;9.622;2022-09-01T11:19:54;3.13;;;2.93;;
4642;SDS011;2334;48.710;9.622;2022-09-01T11:22:33;7.73;;;4.50;;
4642;SDS011;2334;48.710;9.622;2022-09-01T11:25:10;3.53;;;3.23;;
4642;SDS011;2334;48.710;9.622;2022-09-01T11:28:06;4.23;;;3.83;;
4642;SDS011;2334;48.710;9.622;2022-09-01T11:30:48;3.67;;;3.33;;
4642;SDS011;2334;48.710;9.622;2022-09-01T11:33:28;4.97;;;3.20;;
4642;SDS011;2334;48.710;9.622;2022-09-01T11:36:01;3.53;;;3.20;;
4642;SDS011;2334;48.710;9.622;2022-09-01T11:38:31;3.27;;;3.00;;
4642;SDS011;2334;48.710;9.622;2022-09-01T11:41:07;7.20;;;3.43;;
4642;SDS011;2334;48.710;9.622;2022-09-01T11:43:34;3.47;;;3.17;;
4642;SDS011;2334;48.710;9.622;2022-09-01T11:46:04;3.20;;;3.00;;
4642;SDS011;2334;48.710;9.622;2022-09-01T11:48:39;3.70;;;3.40;;
4642;SDS011;2334;48.710;9.622;2022-09-01T11:51:13;3.10;;;2.90;;
4642;SDS011;2334;48.710;9.622;2022-09-01T11:53:41;3.43;;;3.23;;
4642;SDS011;2334;48.710;9.622;2022-09-01T11:56:13;3.53;;;3.23;;
4642;SDS011;2334;48.710;9.622;2022-09-01T11:58:42;5.20;;;2.90;;
4642;SDS011;2334;48.710;9.622;2022-09-01T12:01:14;3.33;;;2.63;;
4642;SDS011;2334;48.710;9.622;2022-09-01T12:03:43;4.07;;;3.00;;
4642;SDS011;2334;48.710;9.622;2022-09-01T12:06:12;3.80;;;2.90;;
4642;SDS011;2334;48.710;9.622;2022-09-01T12:08:51;7.20;;;3.83;;
4642;SDS011;2334;48.710;9.622;2022-09-01T12:11:22;7.33;;;3.53;;
4642;SDS011;2334;48.710;9.622;2022-09-01T12:13:55;4.80;;;3.00;;
4642;SDS011;2334;48.710;9.622;2022-09-01T12:16:25;4.90;;;2.90;;
4642;SDS011;2334;48.710;9.622;2022-09-01T12:18:54;4.67;;;3.77;;
4642;SDS011;2334;48.710;9.622;2022-09-01T12:21:25;5.90;;;3.37;;
4642;SDS011;2334;48.710;9.622;2022-09-01T12:23:53;5.03;;;3.10;;
4642;SDS011;2334;48.710;9.622;2022-09-01T12:26:34;3.90;;;3.50;;
4642;SDS011;2334;48.710;9.622;2022-09-01T12:29:02;3.37;;;3.07;;
4642;SDS011;2334;48.710;9.622;2022-09-01T12:31:31;2.37;;;2.17;;
4642;SDS011;2334;48.710;9.622;2022-09-01T12:33:58;3.00;;;2.80;;
4642;SDS011;2334;48.710;9.622;2022-09-01T12:36:30;3.30;;;3.10;;
4642;SDS011;2334;48.710;9.622;2022-09-01T12:41:45;2.70;;;2.50;;
4642;SDS011;2334;48.710;9.622;2022-09-01T12:44:25;5.07;;;3.70;;
4642;SDS011;2334;48.710;9.622;2022-09-01T12:46:53;5.77;;;3.30;;
4642;SDS011;2334;48.710;9.622;2022-09-01T12:49:22;3.20;;;3.00;;
4642;SDS011;2334;48.710;9.622;2022-09-01T12:54:39;4.47;;;3.23;;
4642;SDS011;2334;48.710;9.622;2022-09-01T12:57:06;3.20;;;2.97;;
4642;SDS011;2334;48.710;9.622;2022-09-01T12:59:33;3.07;;;2.87;;
4642;SDS011;2334;48.710;9.622;2022-09-01T13:04:51;3.17;;;2.47;;
4642;SDS011;2334;48.710;9.622;2022-09-01T13:07:19;3.50;;;3.00;;
4642;SDS011;2334;48.710;9.622;2022-09-01T13:09:46;14.80;;;3.30;;
4642;SDS011;2334;48.710;9.622;2022-09-01T13:12:17;3.20;;;2.67;;
4642;SDS011;2334;48.710;9.622;2022-09-01T13:14:45;3.00;;;2.80;;
4642;SDS011;2334;48.710;9.622;2022-09-01T13:17:13;2.90;;;2.60;;
4642;SDS011;2334;48.710;9.622;2022-09-01T13:19:40;2.80;;;2.60;;
4642;SDS011;2334;48.710;9.622;2022-09-01T13:22:07;3.50;;;2.53;;
4642;SDS011;2334;48.710;9.622;2022-09-01T13:24:36;3.27;;;2.80;;
4642;SDS011;2334;48.710;9.622;2022-09-01T13:27:04;2.53;;;2.33;;
4642;SDS011;2334;48.710;9.622;2022-09-01T13:29:31;2.80;;;2.60;;
4642;SDS011;2334;48.710;9.622;2022-09-01T13:31:58;2.20;;;2.10;;
4642;SDS011;2334;48.710;9.622;2022-09-01T13:34:25;3.80;;;2.53;;
4642;SDS011;2334;48.710;9.622;2022-09-01T13:36:52;2.70;;;2.50;;
4642;SDS011;2334;48.710;9.622;2022-09-01T13:39:19;3.63;;;2.50;;
4642;SDS011;2334;48.710;9.622;2022-09-01T13:41:47;3.00;;;2.80;;
4642;SDS011;2334;48.710;9.622;2022-09-01T13:44:14;2.60;;;2.40;;
4642;SDS011;2334;48.710;9.622;2022-09-01T13:46:42;2.57;;;2.10;;
4642;SDS011;2334;48.710;9.622;2022-09-01T13:49:09;2.40;;;2.30;;
4642;SDS011;2334;48.710;9.622;2022-09-01T13:51:36;2.20;;;2.10;;
4642;SDS011;2334;48.710;9.622;2022-09-01T13:54:04;2.57;;;2.20;;
4642;SDS011;2334;48.710;9.622;2022-09-01T13:56:31;2.40;;;2.30;;
4642;SDS011;2334;48.710;9.622;2022-09-01T13:59:00;2.43;;;2.33;;
4642;SDS011;2334;48.710;9.622;2022-09-01T14:01:27;2.50;;;2.30;;
4642;SDS011;2334;48.710;9.622;2022-09-01T14:03:54;2.40;;;2.30;;
4642;SDS011;2334;48.710;9.622;2022-09-01T14:06:22;3.10;;;2.50;;
4642;SDS011;2334;48.710;9.622;2022-09-01T14:08:49;2.30;;;2.10;;
4642;SDS011;2334;48.710;9.622;2022-09-01T14:11:16;2.37;;;2.20;;
4642;SDS011;2334;48.710;9.622;2022-09-01T14:13:44;5.87;;;2.40;;
4642;SDS011;2334;48.710;9.622;2022-09-01T14:16:13;2.97;;;2.77;;
4642;SDS011;2334;48.710;9.622;2022-09-01T14:18:40;2.87;;;2.60;;
4642;SDS011;2334;48.710;9.622;2022-09-01T14:21:09;2.30;;;2.03;;
4642;SDS011;2334;48.710;9.622;2022-09-01T14:23:37;2.70;;;2.50;;
4642;SDS011;2334;48.710;9.622;2022-09-01T14:26:07;3.57;;;2.57;;
4642;SDS011;2334;48.710;9.622;2022-09-01T14:28:36;2.90;;;2.70;;
4642;SDS011;2334;48.710;9.622;2022-09-01T14:31:06;2.90;;;2.70;;
4642;SDS011;2334;48.710;9.622;2022-09-01T14:33:35;3.13;;;2.93;;
4642;SDS011;2334;48.710;9.622;2022-09-01T14:36:03;2.83;;;2.63;;
4642;SDS011;2334;48.710;9.622;2022-09-01T14:38:30;3.33;;;2.67;;
4642;SDS011;2334;48.710;9.622;2022-09-01T14:40:57;2.40;;;2.30;;
4642;SDS011;2334;48.710;9.622;2022-09-01T14:43:24;2.83;;;2.50;;
4642;SDS011;2334;48.710;9.622;2022-09-01T14:46:00;2.17;;;2.07;;
4642;SDS011;2334;48.710;9.622;2022-09-01T14:48:30;6.30;;;2.40;;
4642;SDS011;2334;48.710;9.622;2022-09-01T14:50:59;3.27;;;2.90;;
4642;SDS011;2334;48.710;9.622;2022-09-01T14:53:27;2.70;;;2.60;;
4642;SDS011;2334;48.710;9.622;2022-09-01T14:55:55;2.97;;;2.30;;
4642;SDS011;2334;48.710;9.622;2022-09-01T14:58:22;3.70;;;3.33;;
4642;SDS011;2334;48.710;9.622;2022-09-01T15:00:50;2.73;;;2.63;;
4642;SDS011;2334;48.710;9.622;2022-09-01T15:03:19;3.70;;;3.23;;
4642;SDS011;2334;48.710;9.622;2022-09-01T15:05:46;2.60;;;2.47;;
4642;SDS011;2334;48.710;9.622;2022-09-01T15:08:15;2.80;;;2.60;;
4642;SDS011;2334;48.710;9.622;2022-09-01T15:10:42;2.77;;;2.57;;
4642;SDS011;2334;48.710;9.622;2022-09-01T15:13:09;2.73;;;2.60;;
4642;SDS011;2334;48.710;9.622;2022-09-01T15:15:37;5.90;;;2.63;;
4642;SDS011;2334;48.710;9.622;2022-09-01T15:18:05;6.30;;;2.60;;
4642;SDS011;2334;48.710;9.622;2022-09-01T15:20:32;2.93;;;2.67;;
4642;SDS011;2334;48.710;9.622;2022-09-01T15:23:13;2.80;;;2.60;;
4642;SDS011;2334;48.710;9.622;2022-09-01T15:25:43;3.03;;;2.57;;
4642;SDS011;2334;48.710;9.622;2022-09-01T15:28:10;3.83;;;2.50;;
4642;SDS011;2334;48.710;9.622;2022-09-01T15:30:38;9.23;;;3.40;;
4642;SDS011;2334;48.710;9.622;2022-09-01T15:33:05;2.93;;;2.73;;
4642;SDS011;2334;48.710;9.622;2022-09-01T15:35:33;2.80;;;2.60;;
4642;SDS011;2334;48.710;9.622;2022-09-01T15:38:00;5.87;;;2.73;;
4642;SDS011;2334;48.710;9.622;2022-09-01T15:40:31;9.90;;;3.00;;
4642;SDS011;2334;48.710;9.622;2022-09-01T15:42:58;2.30;;;2.20;;
4642;SDS011;2334;48.710;9.622;2022-09-01T15:45:26;2.80;;;2.60;;
4642;SDS011;2334;48.710;9.622;2022-09-01T15:47:54;2.70;;;2.50;;
4642;SDS011;2334;48.710;9.622;2022-09-01T15:50:22;2.33;;;2.20;;
4642;SDS011;2334;48.710;9.622;2022-09-01T15:52:51;7.00;;;2.47;;